Nearby METAR Reports

 

KKLS - Kelso Longveiw, Washington, USA
Distance from station: ESE 7mi, 11km
Updated: Tue, May-22-2018 11:56am PDT
Clear
Clear
 Wind from varies
Wind: varies 3 mph , 6 km/h
Temperature: 72°F , 22°C
Dew Point: 55°F , 13°C
Humidity: 57%
Barometer: 29.90 inHg , 1012.5 hPa
Clouds: Clear
Visibility: 10 miles , 16 km
2018/05/22 18:56 KKLS 221856Z AUTO VRB03KT 10SM CLR 22/13 A2990 RMK AO2 SLP130 T02220128
KSPB - Scappoose, Oregon, USA
Distance from station: SSE 29mi, 46km
Updated: Tue, May-22-2018 11:53am PDT
Clear
Clear
 Wind from E
Wind: E 7 mph , 11 km/h
Temperature: 72°F , 22°C
Dew Point: 57°F , 14°C
Humidity: 61%
Barometer: 29.88 inHg , 1011.9 hPa
Clouds: Clear
Visibility: 10 miles , 16 km
2018/05/22 18:53 KSPB 221853Z AUTO 08006KT 10SM CLR 22/14 A2988 RMK AO2 SLP118 T02170139
 
KCLS - Chehalis Central, Washington, USA
Distance from station: N 36mi, 58km
Updated: Tue, May-22-2018 12:15pm PDT
Clear
Clear
 Wind from varies
Wind: varies 6 mph , 9 km/h
Temperature: 73°F , 23°C
Dew Point: 57°F , 14°C
Humidity: 57%
Barometer: 29.91 inHg , 1012.9 hPa
Clouds: Clear
Visibility: 10 miles , 16 km
2018/05/22 19:15 KCLS 221915Z AUTO VRB05KT 10SM CLR 23/14 A2991 RMK AO2
KAST - Astoria, Oregon, USA
Distance from station: W 41mi, 66km
Updated: Tue, May-22-2018 11:55am PDT
Clear
Clear
 Wind from NNW
Wind: NNW 9 mph , 15 km/h
Temperature: 66°F , 19°C
Dew Point: 55°F , 13°C
Humidity: 68%
Barometer: 29.92 inHg , 1013.2 hPa
Clouds: Clear
Visibility: 10 miles , 16 km
2018/05/22 18:55 KAST 221855Z AUTO 33008KT 10SM CLR 19/13 A2992 RMK AO2 SLP131 T01890133
 
KVUO - Vancouver, Washington, USA
Distance from station: SSE 42mi, 68km
Updated: Tue, May-22-2018 11:53am PDT
Clear
Clear
 Wind from WSW
Wind: WSW 8 mph , 13 km/h
Temperature: 70°F , 21°C
Dew Point: 55°F , 13°C
Humidity: 60%
Barometer: 29.88 inHg , 1011.9 hPa
Clouds: Clear
Visibility: 10 miles , 16 km
2018/05/22 18:53 KVUO 221853Z AUTO 24007KT 10SM CLR 21/13 A2988 RMK AO2 SLP119 T02060128
KHIO - Hillsboro/Portld, Oregon, USA
Distance from station: S 43mi, 69km
Updated: Tue, May-22-2018 11:53am PDT
Clear
Clear
 Wind from calm
Wind: Calm
Temperature: 72°F , 22°C
Dew Point: 55°F , 13°C
Humidity: 57%
Barometer: 29.89 inHg , 1012.2 hPa
Clouds: Clear
Visibility: 10 miles , 16 km
2018/05/22 18:53 KHIO 221853Z 00000KT 10SM CLR 22/13 A2989 RMK AO2 SLP118 T02220128
 
KPDX - Portland, Oregon, USA
Distance from station: SSE 44mi, 70km
Updated: Tue, May-22-2018 11:53am PDT
Few Clouds
Few Clouds
 Wind from varies
Wind: varies 3 mph , 6 km/h
Temperature: 72°F , 22°C
Dew Point: 54°F , 12°C
Humidity: 53%
Barometer: 29.89 inHg , 1012.2 hPa
Clouds: Few Clouds
Visibility: 10 miles , 16 km
Cloud details: Few Clouds 8000 ft
2018/05/22 18:53 KPDX 221853Z VRB03KT 10SM FEW080 22/12 A2989 RMK AO2 SLP121 T02220117